Mostly Cloudy Current Weather (METAR) For Cancun Airport

All times on the weather descriptions are local

Observed at 17:40 - (42 mins ago)

Mostly Cloudy

30°C

Mostly Cloudy
Clouds: Few Clouds at 1,500ft, Scattered Clouds at 10,000ft, Broken Clouds at 30,000ft
Wind: 080° at 08 knots
Visibility: 7 statute miles
QNH:
Dew Point: 25°C
Runway in Use: Runway 12

Sunrise Today: 06:30
Sunset Today: 19:04

Forecast Weather (TAF) For Cancun Airport

Issued at 19:00 - (29 days ago)


Runway in Use: Unable to determine, wind is clam

Forecast valid until 19:00 on Monday

METAR/TAF RAW METAR / TAF

MMUN 012240Z 08008KT 7SM FEW015 SCT100 BKN300 30/25 A2993 RMK 8/178

Weather Widget

Put weather from any of our airports on your website with our weather widget.

Find Another Search

Airport Search


Please Wait Please Wait - Loading
Close
Close

Login

Username:

Password:

Remember Me:

Remember me on this computer

Forgotten your password? Get a reset password sent to your registered e-mail address

Close

User Private Message

Subject:

Message: